This is the latest recevied weather packets stored in our database for station/object N3SBK. If no packets are shown the sender has not sent any weather packets the latest 10 day(s).
| Time | Temp. | Humidity | Pressure | Rain* | Wind** | Luminosity | Snow |
|---|---|---|---|---|---|---|---|
| 1788126608 | 25° C | 82% | 1011.5 hPa | 0 mm | - | 57 W/m² | - |
| 1788126304 | 25° C | 81% | 1011.6 hPa | 0 mm | - | 62 W/m² | - |
| 1788125998 | 24.44° C | 79% | 1011.5 hPa | 0 mm | - | 95 W/m² | - |
| 1788125693 | 24.44° C | 78% | 1011.4 hPa | 0 mm | - | 100 W/m² | - |
| 1788125388 | 25° C | 77% | 1011.3 hPa | 0 mm | - | 64 W/m² | - |
| 1788125084 | 25° C | 79% | 1011.4 hPa | 0 mm | - | 65 W/m² | - |
| 1788124783 | 24.44° C | 78% | 1011.7 hPa | 0 mm | - | 68 W/m² | - |
| 1788124478 | 25° C | 78% | 1011.4 hPa | 0 mm | - | 54 W/m² | - |
| 1788124174 | 25° C | 77% | 1011.6 hPa | 0 mm | - | 64 W/m² | - |
| 1788123873 | 25° C | 77% | 1011.4 hPa | 0 mm | - | 76 W/m² | - |
| 1788123571 | 25° C | 77% | 1011.4 hPa | 0 mm | - | 61 W/m² | - |
| 1788123270 | 25° C | 76% | 1011.4 hPa | 0 mm | - | 68 W/m² | - |
| 1788122966 | 25° C | 75% | 1011.4 hPa | 0 mm | - | 71 W/m² | - |
| 1788122665 | 25.56° C | 74% | 1011.6 hPa | 0 mm | - | 90 W/m² | - |
| 1788122360 | 25.56° C | 74% | 1011.5 hPa | 0 mm | - | 100 W/m² | - |
| 1788122056 | 25.56° C | 72% | 1011.5 hPa | 0 mm | - | 124 W/m² | - |
| 1788121755 | 26.11° C | 70% | 1011.7 hPa | 0 mm | - | 82 W/m² | - |
| 1788121451 | 26.67° C | 66% | 1011.8 hPa | 0 mm | - | 76 W/m² | - |
| 1788121147 | 27.22° C | 65% | 1011.7 hPa | 0 mm | - | 91 W/m² | - |
| 1788120840 | 27.22° C | 64% | 1011.7 hPa | 0 mm | - | 445 W/m² | - |
| 1788120535 | 26.67° C | 64% | 1011.6 hPa | 0 mm | - | 464 W/m² | - |
| 1788120235 | 27.78° C | 63% | 1011.7 hPa | 0 mm | - | 183 W/m² | - |
| 1788119925 | 28.33° C | 57% | 1011.7 hPa | 0 mm | - | 278 W/m² | - |
| 1788119624 | 28.89° C | 57% | 1011.8 hPa | 0 mm | - | 182 W/m² | - |
| 1788119323 | 28.33° C | 62% | 1012.1 hPa | 0 mm | - | 477 W/m² | - |
* Rain latest hour (hover to see other rain measurements)
** Current wind speed in m/s (hover to see current wind gust speed)